Myrefisk — LION — position and weather

sailwx.info

Track history (hours):
 
Tides and Currents Weather Stations Pressure Air Temp Water Temp Dewpoint Dewpoint Depression Visibility Wind Speed Wind Dir Waves Ship Positions

Myrefisk

Last reported at 2017-Oct-18 02:00 UTC. Time now 2017-Oct-18 02:22 UTC.
Position N 70°59' E 026°02'.

Length 27 m; draft 4.9 m.

Type: Fishing. MMSI: 257855500.

Date/timePositionNaut miles runAvg speedWind from/ knotsBaromVisibWave heightAir tempDewpointWater temp
2017-Oct-18 02:00N 70°59' E 026°02'0 0.0
2017-Oct-18 01:30N 70°59' E 026°02'0 0.0
2017-Oct-18 01:00N 70°59' E 026°02'0 0.0
2017-Oct-18 00:30N 70°59' E 026°02'0 0.0
2017-Oct-18 00:00N 70°59' E 026°02'0 0.0
2017-Oct-17 23:30N 70°59' E 026°02'0 0.0
2017-Oct-17 23:00N 70°59' E 026°02'0 0.0
2017-Oct-17 22:30N 70°59' E 026°02'0 0.0
2017-Oct-17 22:00N 70°59' E 026°02'0 0.0
2017-Oct-17 21:30N 70°59' E 026°02'1 1.4
2017-Oct-17 21:00N 70°58' E 026°03'4 8.1
2017-Oct-17 20:30N 71°01' E 026°12'4 7.0
2017-Oct-17 20:00N 71°03' E 026°21'4 8.1
2017-Oct-17 19:30N 71°04' E 026°33'4 8.0
2017-Oct-17 19:00N 71°05' E 026°45'4 8.3
2017-Oct-17 18:30N 71°05' E 026°58'4 8.0
2017-Oct-17 18:00N 71°06' E 027°10'3 6.7
2017-Oct-17 17:30N 71°09' E 027°16'4 7.3
2017-Oct-17 17:00N 71°11' E 027°26'4 7.2
2017-Oct-17 16:30N 71°11' E 027°37'3 6.8
2017-Oct-17 16:00N 71°11' E 027°47'3 6.7
2017-Oct-17 15:30N 71°11' E 027°57'2 3.8
2017-Oct-17 15:00N 71°11' E 028°03'0 0.2
2017-Oct-17 14:30N 71°11' E 028°03'1 2.1
2017-Oct-17 14:01N 71°11' E 028°00'0 0.8
2017-Oct-17 13:30N 71°11' E 028°00'0 0.4
2017-Oct-17 13:00N 71°11' E 027°60'1 1.8
2017-Oct-17 12:30N 71°11' E 027°57'1 1.7
2017-Oct-17 12:00N 71°11' E 027°55'0 0.6
2017-Oct-17 11:30N 71°11' E 027°56'0 0.6
2017-Oct-17 10:59N 71°11' E 027°55'1 2.3
2017-Oct-17 10:30N 71°12' E 027°51'1 1.5
2017-Oct-17 10:00N 71°12' E 027°53'0 0.3
2017-Oct-17 09:30N 71°12' E 027°53'1 1.7
2017-Oct-17 09:00N 71°12' E 027°50'1 1.1
2017-Oct-17 08:30N 71°12' E 027°48'0 0.9
2017-Oct-17 08:00N 71°12' E 027°48'3 5.3
2017-Oct-17 07:30N 71°12' E 027°56'2 3.2
2017-Oct-17 07:00N 71°12' E 027°51'2 4.5
2017-Oct-17 06:30N 71°12' E 027°44'3 5.7
2017-Oct-17 06:00N 71°12' E 027°35'0 0.5
2017-Oct-17 05:30N 71°12' E 027°34'1 1.7
2017-Oct-17 05:00N 71°12' E 027°37'2 3.2
2017-Oct-17 04:30N 71°12' E 027°32'0 0.6
2017-Oct-17 04:00N 71°11' E 027°32'1 1.2
2017-Oct-17 03:30N 71°11' E 027°30'1 2.5
2017-Oct-17 03:00N 71°11' E 027°27'0 0.9
2017-Oct-17 02:30N 71°11' E 027°28'0 0.8
2017-Oct-17 02:00N 71°11' E 027°29'1 1.0
2017-Oct-17 01:30N 71°11' E 027°31'4 7.7
2017-Oct-17 01:00N 71°09' E 027°21'3 6.9
2017-Oct-17 00:30N 71°06' E 027°14'4 7.5
2017-Oct-16 23:59N 71°05' E 027°03'4 8.0
2017-Oct-16 23:30N 71°04' E 026°52'4 7.9
2017-Oct-16 22:59N 71°02' E 026°41'4 8.0
2017-Oct-16 22:30N 71°01' E 026°29'4 7.5
2017-Oct-16 22:00N 70°60' E 026°18'4 7.2
2017-Oct-16 21:30N 70°59' E 026°08'2 3.9
2017-Oct-16 21:00N 70°59' E 026°02'0 0.0
2017-Oct-16 20:30N 70°59' E 026°02'0 0.0
2017-Oct-16 19:59N 70°59' E 026°02'0 0.0
2017-Oct-16 19:30N 70°59' E 026°02'0 0.0
2017-Oct-16 19:00N 70°59' E 026°02'0 0.0
2017-Oct-16 18:29N 70°59' E 026°02'0 0.0
2017-Oct-16 18:00N 70°59' E 026°02'0 0.0
2017-Oct-16 17:30N 70°59' E 026°02'0 0.0
2017-Oct-16 17:00N 70°59' E 026°02'0 0.0
2017-Oct-16 16:30N 70°59' E 026°02'2 3.4
2017-Oct-16 16:00N 70°59' E 026°07'4 7.6
2017-Oct-16 15:30N 71°02' E 026°14'3 6.9
2017-Oct-16 15:00N 71°05' E 026°11'7 7.0
2017-Oct-16 14:00N 71°10' E 025°56'4 7.6
2017-Oct-16 13:30N 71°11' E 025°45'4 8.4
2017-Oct-16 13:00N 71°11' E 025°31'4 8.2
2017-Oct-16 12:31N 71°12' E 025°19'4 8.2
2017-Oct-16 12:00N 71°12' E 025°06'3 6.1
2017-Oct-16 11:30N 71°12' E 024°57'0 0.9
2017-Oct-16 11:00N 71°11' E 024°56'1 1.9
2017-Oct-16 10:30N 71°11' E 024°53'1 2.2
2017-Oct-16 09:59N 71°11' E 024°50'2 4.6
2017-Oct-16 09:29N 71°11' E 024°57'0 0.6
2017-Oct-16 09:00N 71°11' E 024°58'1 1.2
2017-Oct-16 08:30N 71°11' E 024°56'1 2.0
2017-Oct-16 08:00N 71°11' E 024°53'0 0.9
2017-Oct-16 07:30N 71°11' E 024°52'0 0.2
2017-Oct-16 07:00N 71°11' E 024°52'2 4.7
2017-Oct-16 06:30N 71°12' E 024°59'2 4.3
2017-Oct-16 06:00N 71°11' E 024°52'3 6.8
2017-Oct-16 05:30N 71°08' E 024°54'4 7.8
2017-Oct-16 05:00N 71°04' E 024°51'4 7.3
2017-Oct-16 04:30N 71°01' E 024°45'2 3.5
2017-Oct-16 04:00N 70°60' E 024°41'0 0.0
2017-Oct-16 03:30N 70°60' E 024°41'0 0.0
2017-Oct-16 03:00N 70°60' E 024°41'0 0.0
2017-Oct-16 02:30N 70°60' E 024°41'0 0.0
2017-Oct-16 01:59N 70°60' E 024°41'0 0.0
2017-Oct-16 01:30N 70°60' E 024°41'0 0.0
2017-Oct-16 01:00N 70°60' E 024°41'0 0.0
2017-Oct-16 00:30N 70°60' E 024°41'0 0.0
2017-Oct-16 00:00N 70°60' E 024°41'0 0.0
2017-Oct-15 23:30N 70°60' E 024°41'0 0.0
2017-Oct-15 23:00N 70°60' E 024°41'0 0.0
2017-Oct-15 22:30N 70°60' E 024°41'0 0.0
2017-Oct-15 21:59N 70°60' E 024°41'0 0.0
2017-Oct-15 21:30N 70°60' E 024°41'0 0.0
2017-Oct-15 21:00N 70°60' E 024°41'2 4.5
2017-Oct-15 20:30N 71°01' E 024°46'4 7.3
2017-Oct-15 19:59N 71°04' E 024°52'4 7.7
2017-Oct-15 19:30N 71°08' E 024°55'3 5.8
2017-Oct-15 19:00N 71°11' E 024°53'2 3.0
2017-Oct-15 18:30N 71°11' E 024°57'3 6.6
2017-Oct-15 18:00N 71°12' E 025°07'0 0.6
2017-Oct-15 17:30N 71°12' E 025°06'3 6.8
2017-Oct-15 17:00N 71°11' E 024°56'1 1.0
2017-Oct-15 16:30N 71°11' E 024°55'1 1.5
2017-Oct-15 16:00N 71°12' E 024°56'1 1.1
2017-Oct-15 15:30N 71°11' E 024°57'1 1.6
2017-Oct-15 15:00N 71°11' E 024°54'1 1.0
2017-Oct-15 14:00N 71°12' E 024°57'0 0.4
2017-Oct-15 13:30N 71°12' E 024°57'0 1.0
2017-Oct-15 12:59N 71°11' E 024°57'1 2.3
2017-Oct-15 12:30N 71°11' E 024°53'0 0.3
2017-Oct-15 12:00N 71°11' E 024°53'4 7.2
2017-Oct-15 11:30N 71°07' E 024°54'4 8.0
2017-Oct-15 11:00N 71°04' E 024°51'4 8.3
2017-Oct-15 10:30N 71°00' E 024°44'2 3.8
2017-Oct-15 10:00N 70°60' E 024°38'4 8.2
2017-Oct-15 09:30N 70°58' E 024°27'4 8.5
2017-Oct-15 09:00N 70°55' E 024°17'5 9.3
2017-Oct-15 08:30N 70°52' E 024°06'4 8.3
2017-Oct-15 08:00N 70°50' E 023°56'4 8.3
2017-Oct-15 07:30N 70°47' E 023°46'4 8.6
2017-Oct-15 07:00N 70°44' E 023°36'4 8.9
2017-Oct-15 06:30N 70°41' E 023°27'4 8.7
2017-Oct-15 06:00N 70°38' E 023°18'5 9.1
2017-Oct-15 05:30N 70°35' E 023°09'4 8.6
2017-Oct-15 05:00N 70°31' E 022°60'4 8.1
2017-Oct-15 04:30N 70°30' E 022°48'4 7.3
2017-Oct-15 04:00N 70°29' E 022°37'3 6.6
2017-Oct-15 03:30N 70°28' E 022°28'4 7.3
2017-Oct-15 03:01N 70°27' E 022°17'4 7.7
2017-Oct-15 02:29N 70°26' E 022°06'4 7.7
2017-Oct-15 02:00N 70°25' E 021°55'4 7.7
2017-Oct-15 01:30N 70°24' E 021°44'4 7.3
2017-Oct-15 01:00N 70°22' E 021°36'4 7.6
2017-Oct-15 00:30N 70°19' E 021°28'4 7.6
2017-Oct-15 00:00N 70°17' E 021°19'4 7.8
2017-Oct-14 23:30N 70°14' E 021°10'4 8.2
2017-Oct-14 23:00N 70°11' E 021°05'4 7.7
2017-Oct-14 22:30N 70°07' E 021°01'4 7.8
2017-Oct-14 22:00N 70°04' E 020°54'4 8.5
2017-Oct-14 21:30N 70°02' E 020°42'4 8.3
2017-Oct-14 21:00N 70°01' E 020°31'4 8.1
2017-Oct-14 20:30N 69°59' E 020°20'4 8.1
2017-Oct-14 20:00N 69°58' E 020°09'4 7.9
2017-Oct-14 19:30N 69°55' E 020°00'4 7.8
2017-Oct-14 19:00N 69°53' E 019°51'4 7.9
2017-Oct-14 18:29N 69°51' E 019°42'4 8.2
2017-Oct-14 18:00N 69°49' E 019°31'4 8.1
2017-Oct-14 17:30N 69°47' E 019°20'4 8.4
2017-Oct-14 17:00N 69°46' E 019°09'4 8.1
2017-Oct-14 16:30N 69°42' E 019°03'3 6.5
2017-Oct-14 16:00N 69°39' E 018°58'1 1.6
2017-Oct-14 15:30N 69°40' E 018°60'1 1.6
2017-Oct-14 15:00N 69°39' E 018°58'0 0.0
2017-Oct-14 14:30N 69°39' E 018°58'0 0.0
2017-Oct-14 14:00N 69°39' E 018°58'0 0.0
2017-Oct-14 13:30N 69°39' E 018°58'0 0.0
2017-Oct-14 13:00N 69°39' E 018°58'0 0.0
2017-Oct-14 12:30N 69°39' E 018°58'0 0.0
2017-Oct-14 12:00N 69°39' E 018°58'4 7.1
2017-Oct-14 11:30N 69°36' E 018°53'4 7.8
2017-Oct-14 11:00N 69°33' E 018°45'4 7.6
2017-Oct-14 10:30N 69°32' E 018°35'4 8.3
2017-Oct-14 10:00N 69°31' E 018°24'4 8.1
2017-Oct-14 09:30N 69°29' E 018°13'4 7.5
2017-Oct-14 09:00N 69°26' E 018°07'4 8.6
2017-Oct-14 08:30N 69°22' E 018°06'4 8.4
2017-Oct-14 08:00N 69°18' E 017°58'5 8.9
2017-Oct-14 07:30N 69°14' E 017°58'3 6.9
2017-Oct-14 07:00N 69°11' E 017°58'4 8.2
2017-Oct-14 06:30N 69°09' E 017°47'4 8.3
2017-Oct-14 06:00N 69°07' E 017°37'4 8.2
2017-Oct-14 05:30N 69°06' E 017°26'4 8.2
2017-Oct-14 05:00N 69°02' E 017°20'4 7.8
2017-Oct-14 04:30N 68°59' E 017°14'4 8.3
2017-Oct-14 04:00N 68°59' E 017°03'4 7.9
2017-Oct-14 03:30N 68°59' E 016°52'4 8.0
2017-Oct-14 03:00N 68°59' E 016°41'4 7.9
2017-Oct-14 02:30N 68°58' E 016°30'4 7.9
2017-Oct-14 02:00N 68°60' E 016°19'4 8.1
2017-Oct-14 01:31N 68°59' E 016°08'4 7.9
2017-Oct-14 00:59N 68°59' E 015°57'4 8.3
2017-Oct-14 00:29N 68°59' E 015°46'4 8.0
2017-Oct-14 00:00N 68°57' E 015°36'4 8.4
2017-Oct-13 23:30N 68°53' E 015°32'3 5.6
2017-Oct-13 23:00N 68°54' E 015°25'4 7.7
2017-Oct-13 22:30N 68°57' E 015°23'4 7.3
2017-Oct-13 22:00N 69°01' E 015°20'4 7.8
2017-Oct-13 21:30N 69°03' E 015°10'4 7.5
2017-Oct-13 21:00N 69°02' E 015°00'4 8.2
2017-Oct-13 20:31N 68°57' E 014°59'3 6.6
2017-Oct-13 19:59N 68°55' E 015°04'0 0.2
2017-Oct-13 19:30N 68°55' E 015°04'0 0.0
2017-Oct-13 19:00N 68°55' E 015°04'0 0.0
2017-Oct-13 18:29N 68°55' E 015°04'0 0.0
2017-Oct-13 18:00N 68°55' E 015°04'0 0.0
2017-Oct-13 17:30N 68°55' E 015°04'0 0.0
2017-Oct-13 17:00N 68°55' E 015°04'0 0.0
2017-Oct-13 16:30N 68°55' E 015°04'0 0.0
2017-Oct-13 16:00N 68°55' E 015°04'0 0.0
2017-Oct-13 15:30N 68°55' E 015°04'0 0.0
2017-Oct-13 15:00N 68°55' E 015°04'0 0.0
2017-Oct-13 14:30N 68°55' E 015°04'0 0.0
2017-Oct-13 14:00N 68°55' E 015°04'0 0.0
2017-Oct-13 13:30N 68°55' E 015°04'0 0.0
2017-Oct-13 13:00N 68°55' E 015°04'0 0.0
2017-Oct-13 12:30N 68°55' E 015°04'0 0.0
2017-Oct-13 12:00N 68°55' E 015°04'0 0.0
2017-Oct-13 11:30N 68°55' E 015°04'0 0.0
2017-Oct-13 11:00N 68°55' E 015°04'0 0.0
2017-Oct-13 10:30N 68°55' E 015°04'0 0.0
2017-Oct-13 10:00N 68°55' E 015°04'0 0.0
2017-Oct-13 09:30N 68°55' E 015°04'0 0.0
2017-Oct-13 09:00N 68°55' E 015°04'0 0.0
2017-Oct-13 08:30N 68°55' E 015°04'0 0.0
2017-Oct-13 08:00N 68°55' E 015°04'0 0.0
2017-Oct-12 16:24N 68°55' E 015°04'0 0.0
2017-Oct-12 16:00N 68°55' E 015°04'0 0.0
2017-Oct-12 15:30N 68°55' E 015°04'0 0.0
2017-Oct-12 15:00N 68°55' E 015°04'0 0.0
2017-Oct-12 14:30N 68°55' E 015°04'0 0.0
2017-Oct-12 14:00N 68°55' E 015°04'0 0.0
2017-Oct-12 13:30N 68°55' E 015°04'0 0.0
2017-Oct-12 13:00N 68°55' E 015°04'0 0.0
2017-Oct-12 12:30N 68°55' E 015°04'0 0.0
2017-Oct-12 12:00N 68°55' E 015°04'0 0.0
2017-Oct-12 11:29N 68°55' E 015°04'0 0.0
2017-Oct-12 11:00N 68°55' E 015°04'0 0.0
2017-Oct-12 10:30N 68°55' E 015°04'0 0.0
2017-Oct-12 10:00N 68°55' E 015°04'0 0.0
2017-Oct-12 09:30N 68°55' E 015°04'0 0.0
2017-Oct-12 09:00N 68°55' E 015°04'0 0.0
2017-Oct-12 08:29N 68°55' E 015°04'0 0.0
2017-Oct-12 07:59N 68°55' E 015°04'0 0.0
2017-Oct-12 07:30N 68°55' E 015°04'0 0.0
2017-Oct-12 07:00N 68°55' E 015°04'0 0.0
2017-Oct-12 06:30N 68°55' E 015°04'0 0.0
2017-Oct-12 06:00N 68°55' E 015°04'0 0.0
2017-Oct-12 05:31N 68°55' E 015°04'0 0.0
2017-Oct-12 05:00N 68°55' E 015°04'0 0.0
2017-Oct-12 04:30N 68°55' E 015°04'0 0.0
2017-Oct-12 04:00N 68°55' E 015°04'0 0.0
2017-Oct-12 03:30N 68°55' E 015°04'0 0.0
2017-Oct-12 03:00N 68°55' E 015°04'0 0.0
2017-Oct-12 02:30N 68°55' E 015°04'0 0.0
2017-Oct-12 02:00N 68°55' E 015°04'0 0.0
2017-Oct-12 01:30N 68°55' E 015°04'0 0.0
2017-Oct-12 01:00N 68°55' E 015°04'0 0.0
2017-Oct-12 00:30N 68°55' E 015°04'0 0.0
2017-Oct-12 00:00N 68°55' E 015°04'0 0.0
2017-Oct-11 23:31N 68°55' E 015°04'0 0.0
2017-Oct-11 23:00N 68°55' E 015°04'0 0.0
2017-Oct-11 22:30N 68°55' E 015°04'0 0.0
2017-Oct-11 22:00N 68°55' E 015°04'0 0.0
2017-Oct-11 21:30N 68°55' E 015°04'0 0.0
2017-Oct-11 21:00N 68°55' E 015°04'0 0.0
2017-Oct-11 20:30N 68°55' E 015°04'0 0.0
2017-Oct-11 20:00N 68°55' E 015°04'0 0.0
2017-Oct-11 19:30N 68°55' E 015°04'0 0.0
2017-Oct-11 19:00N 68°55' E 015°04'0 0.0
2017-Oct-11 18:30N 68°55' E 015°04'0 0.0
2017-Oct-11 18:00N 68°55' E 015°04'0 0.0
2017-Oct-11 17:30N 68°55' E 015°04'0 0.0
2017-Oct-11 17:00N 68°55' E 015°04'0 0.0
2017-Oct-11 00:00N 68°55' E 015°04'0 0.0
2017-Oct-10 23:30N 68°55' E 015°04'0 0.0
2017-Oct-10 23:00N 68°55' E 015°04'0 0.0
2017-Oct-10 22:30N 68°55' E 015°04'0 0.0
2017-Oct-10 22:00N 68°55' E 015°04'0 0.0
2017-Oct-10 21:30N 68°55' E 015°04'0 0.0
2017-Oct-10 21:00N 68°55' E 015°04'0 0.0
2017-Oct-10 20:30N 68°55' E 015°04'0 0.0
2017-Oct-10 19:59N 68°55' E 015°04'0 0.0
2017-Oct-10 19:30N 68°55' E 015°04'0 0.0
2017-Oct-10 19:00N 68°55' E 015°04'0 0.0
2017-Oct-10 18:30N 68°55' E 015°04'0 0.0
2017-Oct-10 18:00N 68°55' E 015°04'0 0.0
2017-Oct-10 17:30N 68°55' E 015°04'0 0.0
2017-Oct-10 17:00N 68°55' E 015°04'0 0.0
2017-Oct-10 16:31N 68°55' E 015°04'0 0.0
2017-Oct-10 16:00N 68°55' E 015°04'0 0.0
2017-Oct-10 15:30N 68°55' E 015°04'0 0.0
2017-Oct-10 15:00N 68°55' E 015°04'0 0.0
2017-Oct-10 14:00N 68°55' E 015°04'0 0.0
2017-Oct-10 13:30N 68°55' E 015°04'0 0.0
2017-Oct-10 13:00N 68°55' E 015°04'0 0.0
2017-Oct-10 12:30N 68°55' E 015°04'0 0.0
2017-Oct-10 12:00N 68°55' E 015°04'0 0.0
2017-Oct-10 11:30N 68°55' E 015°04'0 0.0
2017-Oct-10 11:00N 68°55' E 015°04'0 0.0
2017-Oct-10 10:30N 68°55' E 015°04'0 0.0
2017-Oct-10 10:00N 68°55' E 015°04'0 0.0
2017-Oct-10 09:30N 68°55' E 015°04'0 0.0
2017-Oct-10 09:00N 68°55' E 015°04'0 0.0
2017-Oct-10 08:30N 68°55' E 015°04'0 0.0
2017-Oct-10 08:00N 68°55' E 015°04'0 0.0
2017-Oct-10 07:30N 68°55' E 015°04'0 0.0
2017-Oct-10 07:00N 68°55' E 015°04'0 0.0
2017-Oct-10 06:30N 68°55' E 015°04'0 0.0
2017-Oct-10 06:00N 68°55' E 015°04'0 0.0
2017-Oct-10 05:30N 68°55' E 015°04'0 0.0
2017-Oct-10 05:00N 68°55' E 015°04'0 0.0
2017-Oct-10 04:30N 68°55' E 015°04'0 0.0
2017-Oct-10 04:00N 68°55' E 015°04'0 0.0
2017-Oct-10 03:30N 68°55' E 015°04'0 0.0
2017-Oct-10 03:00N 68°55' E 015°04'0 0.0
2017-Oct-10 02:30N 68°55' E 015°04'0 0.0
2017-Oct-10 02:00N 68°55' E 015°04'0 0.0
2017-Oct-10 01:30N 68°55' E 015°04'0 0.0
2017-Oct-10 01:00N 68°55' E 015°04'0 0.0
2017-Oct-10 00:29N 68°55' E 015°04'0 0.0
2017-Oct-10 00:00N 68°55' E 015°04'0 0.0
2017-Oct-09 23:30N 68°55' E 015°04'0 0.0
2017-Oct-09 22:59N 68°55' E 015°04'0 0.0
2017-Oct-09 22:30N 68°55' E 015°04'0 0.0
2017-Oct-09 22:00N 68°55' E 015°04'0 0.0
2017-Oct-09 21:29N 68°55' E 015°04'0 0.0
2017-Oct-09 21:00N 68°55' E 015°04'0 0.0
2017-Oct-09 20:30N 68°55' E 015°04'0 0.0
2017-Oct-09 20:00N 68°55' E 015°04'0 0.0
2017-Oct-09 19:30N 68°55' E 015°04'0 0.0
2017-Oct-09 18:59N 68°55' E 015°04'0 0.0
2017-Oct-09 18:30N 68°55' E 015°04'0 0.0
2017-Oct-09 18:00N 68°55' E 015°04'0 0.0
2017-Oct-09 17:30N 68°55' E 015°04'0 0.0
2017-Oct-09 17:00N 68°55' E 015°04'0 0.0
2017-Oct-09 16:30N 68°55' E 015°04'0 0.0
2017-Oct-09 16:00N 68°55' E 015°04'0 0.0
2017-Oct-09 15:30N 68°55' E 015°04'0 0.0
2017-Oct-09 15:01N 68°55' E 015°04'0 0.0
2017-Oct-09 14:30N 68°55' E 015°04'0 0.0
2017-Oct-09 14:00N 68°55' E 015°04'0 0.0
2017-Oct-09 13:30N 68°55' E 015°04'0 0.0
2017-Oct-09 13:00N 68°55' E 015°04'0 0.0
2017-Oct-09 12:29N 68°55' E 015°04'0 0.0
2017-Oct-09 12:00N 68°55' E 015°04'0 0.0
2017-Oct-09 11:30N 68°55' E 015°04'0 0.0
2017-Oct-09 11:00N 68°55' E 015°04'0 0.0
2017-Oct-09 10:30N 68°55' E 015°04'0 0.0
2017-Oct-09 09:59N 68°55' E 015°04'0 0.0
2017-Oct-09 09:30N 68°55' E 015°04'0 0.0
2017-Oct-09 09:00N 68°55' E 015°04'0 0.0
2017-Oct-09 08:30N 68°55' E 015°04'0 0.0
2017-Oct-09 08:00N 68°55' E 015°04'0 0.0
2017-Oct-09 07:30N 68°55' E 015°04'0 0.0
2017-Oct-09 07:00N 68°55' E 015°04'0 0.0
2017-Oct-09 06:30N 68°55' E 015°04'0 0.0
2017-Oct-09 06:00N 68°55' E 015°04'0 0.0
2017-Oct-09 05:30N 68°55' E 015°04'0 0.0
2017-Oct-09 05:00N 68°55' E 015°04'0 0.0
2017-Oct-09 04:30N 68°55' E 015°04'0 0.0
2017-Oct-09 04:00N 68°55' E 015°04'0 0.0
2017-Oct-09 03:30N 68°55' E 015°04'0 0.0
2017-Oct-09 03:00N 68°55' E 015°04'0 0.0
2017-Oct-09 02:30N 68°55' E 015°04'0 0.0
2017-Oct-09 02:00N 68°55' E 015°04'0 0.0
2017-Oct-09 01:30N 68°55' E 015°04'0 0.0
2017-Oct-09 01:00N 68°55' E 015°04'0 0.0
2017-Oct-09 00:30N 68°55' E 015°04'0 0.0
2017-Oct-09 00:00N 68°55' E 015°04'0 0.0
2017-Oct-08 23:30N 68°55' E 015°04'0 0.0
2017-Oct-08 23:00N 68°55' E 015°04'0 0.0
2017-Oct-08 22:30N 68°55' E 015°04'0 0.0
2017-Oct-08 22:00N 68°55' E 015°04'0 0.0
2017-Oct-08 21:30N 68°55' E 015°04'0 0.0
2017-Oct-08 21:00N 68°55' E 015°04'0 0.0
2017-Oct-08 20:30N 68°55' E 015°04'0 0.0
2017-Oct-08 20:01N 68°55' E 015°04'0 0.0
2017-Oct-08 19:30N 68°55' E 015°04'0 0.0
2017-Oct-08 19:00N 68°55' E 015°04'0 0.0
2017-Oct-08 18:30N 68°55' E 015°04'0 0.0
2017-Oct-08 18:00N 68°55' E 015°04'0 0.0
2017-Oct-08 17:29N 68°55' E 015°04'0 0.0
2017-Oct-08 17:00N 68°55' E 015°04'0 0.0
2017-Oct-08 16:30N 68°55' E 015°04'0 0.0
2017-Oct-08 16:00N 68°55' E 015°04'0 0.0
2017-Oct-08 15:30N 68°55' E 015°04'0 0.0
2017-Oct-08 14:59N 68°55' E 015°04'0 0.0
2017-Oct-08 14:30N 68°55' E 015°04'0 0.0
2017-Oct-08 14:00N 68°55' E 015°04'0 0.0
2017-Oct-08 13:29N 68°55' E 015°04'0 0.0
2017-Oct-08 12:59N 68°55' E 015°04'0 0.0
2017-Oct-08 12:30N 68°55' E 015°04'0 0.0
2017-Oct-08 12:00N 68°55' E 015°04'0 0.0
2017-Oct-08 11:30N 68°55' E 015°04'0 0.0
2017-Oct-08 11:00N 68°55' E 015°04'0 0.0
2017-Oct-08 10:30N 68°55' E 015°04'0 0.0
2017-Oct-08 10:00N 68°55' E 015°04'0 0.2
2017-Oct-08 09:30N 68°55' E 015°04'0 0.0
2017-Oct-08 09:01N 68°55' E 015°04'0 0.0
2017-Oct-08 08:29N 68°55' E 015°04'3 6.8
2017-Oct-08 08:00N 68°57' E 014°59'4 8.3
2017-Oct-08 07:30N 69°02' E 015°01'4 7.9
2017-Oct-08 07:00N 69°05' E 015°06'4 7.2
2017-Oct-08 06:29N 69°08' E 015°11'3 6.9
2017-Oct-08 06:00N 69°11' E 015°16'3 6.8
2017-Oct-08 05:30N 69°14' E 015°21'3 6.8
2017-Oct-08 05:00N 69°17' E 015°25'3 6.7
2017-Oct-08 04:30N 69°20' E 015°30'3 6.9
2017-Oct-08 04:00N 69°23' E 015°34'3 6.7
2017-Oct-08 03:30N 69°26' E 015°39'3 6.4
2017-Oct-08 03:00N 69°29' E 015°43'4 7.1
2017-Oct-08 02:30N 69°32' E 015°47'  
Track history (hours):
 
Tides and Currents Weather Stations Pressure Air Temp Water Temp Dewpoint Dewpoint Depression Visibility Wind Speed Wind Dir Waves Ship Positions

Myrefisk

Last reported at 2017-Oct-18 02:00 UTC. Time now 2017-Oct-18 02:22 UTC.
Position N 70°59' E 026°02'.

Length 27 m; draft 4.9 m.

Type: Fishing. MMSI: 257855500.

Date/timePositionNaut miles runAvg speedWind from/ knotsBaromVisibWave heightAir tempDewpointWater temp
2017-Oct-18 02:00N 70°59' E 026°02'0 0.0
2017-Oct-18 01:30N 70°59' E 026°02'0 0.0
2017-Oct-18 01:00N 70°59' E 026°02'0 0.0
2017-Oct-18 00:30N 70°59' E 026°02'0 0.0
2017-Oct-18 00:00N 70°59' E 026°02'0 0.0
2017-Oct-17 23:30N 70°59' E 026°02'0 0.0
2017-Oct-17 23:00N 70°59' E 026°02'0 0.0
2017-Oct-17 22:30N 70°59' E 026°02'0 0.0
2017-Oct-17 22:00N 70°59' E 026°02'0 0.0
2017-Oct-17 21:30N 70°59' E 026°02'1 1.4
2017-Oct-17 21:00N 70°58' E 026°03'4 8.1
2017-Oct-17 20:30N 71°01' E 026°12'4 7.0
2017-Oct-17 20:00N 71°03' E 026°21'4 8.1
2017-Oct-17 19:30N 71°04' E 026°33'4 8.0
2017-Oct-17 19:00N 71°05' E 026°45'4 8.3
2017-Oct-17 18:30N 71°05' E 026°58'4 8.0
2017-Oct-17 18:00N 71°06' E 027°10'3 6.7
2017-Oct-17 17:30N 71°09' E 027°16'4 7.3
2017-Oct-17 17:00N 71°11' E 027°26'4 7.2
2017-Oct-17 16:30N 71°11' E 027°37'3 6.8
2017-Oct-17 16:00N 71°11' E 027°47'3 6.7
2017-Oct-17 15:30N 71°11' E 027°57'2 3.8
2017-Oct-17 15:00N 71°11' E 028°03'0 0.2
2017-Oct-17 14:30N 71°11' E 028°03'1 2.1
2017-Oct-17 14:01N 71°11' E 028°00'0 0.8
2017-Oct-17 13:30N 71°11' E 028°00'0 0.4
2017-Oct-17 13:00N 71°11' E 027°60'1 1.8
2017-Oct-17 12:30N 71°11' E 027°57'1 1.7
2017-Oct-17 12:00N 71°11' E 027°55'0 0.6
2017-Oct-17 11:30N 71°11' E 027°56'0 0.6
2017-Oct-17 10:59N 71°11' E 027°55'1 2.3
2017-Oct-17 10:30N 71°12' E 027°51'1 1.5
2017-Oct-17 10:00N 71°12' E 027°53'0 0.3
2017-Oct-17 09:30N 71°12' E 027°53'1 1.7
2017-Oct-17 09:00N 71°12' E 027°50'1 1.1
2017-Oct-17 08:30N 71°12' E 027°48'0 0.9
2017-Oct-17 08:00N 71°12' E 027°48'3 5.3
2017-Oct-17 07:30N 71°12' E 027°56'2 3.2
2017-Oct-17 07:00N 71°12' E 027°51'2 4.5
2017-Oct-17 06:30N 71°12' E 027°44'3 5.7
2017-Oct-17 06:00N 71°12' E 027°35'0 0.5
2017-Oct-17 05:30N 71°12' E 027°34'1 1.7
2017-Oct-17 05:00N 71°12' E 027°37'2 3.2
2017-Oct-17 04:30N 71°12' E 027°32'0 0.6
2017-Oct-17 04:00N 71°11' E 027°32'1 1.2
2017-Oct-17 03:30N 71°11' E 027°30'1 2.5
2017-Oct-17 03:00N 71°11' E 027°27'0 0.9
2017-Oct-17 02:30N 71°11' E 027°28'0 0.8
2017-Oct-17 02:00N 71°11' E 027°29'1 1.0
2017-Oct-17 01:30N 71°11' E 027°31'4 7.7
2017-Oct-17 01:00N 71°09' E 027°21'3 6.9
2017-Oct-17 00:30N 71°06' E 027°14'4 7.5
2017-Oct-16 23:59N 71°05' E 027°03'4 8.0
2017-Oct-16 23:30N 71°04' E 026°52'4 7.9
2017-Oct-16 22:59N 71°02' E 026°41'4 8.0
2017-Oct-16 22:30N 71°01' E 026°29'4 7.5
2017-Oct-16 22:00N 70°60' E 026°18'4 7.2
2017-Oct-16 21:30N 70°59' E 026°08'2 3.9
2017-Oct-16 21:00N 70°59' E 026°02'0 0.0
2017-Oct-16 20:30N 70°59' E 026°02'0 0.0
2017-Oct-16 19:59N 70°59' E 026°02'0 0.0
2017-Oct-16 19:30N 70°59' E 026°02'0 0.0
2017-Oct-16 19:00N 70°59' E 026°02'0 0.0
2017-Oct-16 18:29N 70°59' E 026°02'0 0.0
2017-Oct-16 18:00N 70°59' E 026°02'0 0.0
2017-Oct-16 17:30N 70°59' E 026°02'0 0.0
2017-Oct-16 17:00N 70°59' E 026°02'0 0.0
2017-Oct-16 16:30N 70°59' E 026°02'2 3.4
2017-Oct-16 16:00N 70°59' E 026°07'4 7.6
2017-Oct-16 15:30N 71°02' E 026°14'3 6.9
2017-Oct-16 15:00N 71°05' E 026°11'7 7.0
2017-Oct-16 14:00N 71°10' E 025°56'4 7.6
2017-Oct-16 13:30N 71°11' E 025°45'4 8.4
2017-Oct-16 13:00N 71°11' E 025°31'4 8.2
2017-Oct-16 12:31N 71°12' E 025°19'4 8.2
2017-Oct-16 12:00N 71°12' E 025°06'3 6.1
2017-Oct-16 11:30N 71°12' E 024°57'0 0.9
2017-Oct-16 11:00N 71°11' E 024°56'1 1.9
2017-Oct-16 10:30N 71°11' E 024°53'1 2.2
2017-Oct-16 09:59N 71°11' E 024°50'2 4.6
2017-Oct-16 09:29N 71°11' E 024°57'0 0.6
2017-Oct-16 09:00N 71°11' E 024°58'1 1.2
2017-Oct-16 08:30N 71°11' E 024°56'1 2.0
2017-Oct-16 08:00N 71°11' E 024°53'0 0.9
2017-Oct-16 07:30N 71°11' E 024°52'0 0.2
2017-Oct-16 07:00N 71°11' E 024°52'2 4.7
2017-Oct-16 06:30N 71°12' E 024°59'2 4.3
2017-Oct-16 06:00N 71°11' E 024°52'3 6.8
2017-Oct-16 05:30N 71°08' E 024°54'4 7.8
2017-Oct-16 05:00N 71°04' E 024°51'4 7.3
2017-Oct-16 04:30N 71°01' E 024°45'2 3.5
2017-Oct-16 04:00N 70°60' E 024°41'0 0.0
2017-Oct-16 03:30N 70°60' E 024°41'0 0.0
2017-Oct-16 03:00N 70°60' E 024°41'0 0.0
2017-Oct-16 02:30N 70°60' E 024°41'0 0.0
2017-Oct-16 01:59N 70°60' E 024°41'0 0.0
2017-Oct-16 01:30N 70°60' E 024°41'0 0.0
2017-Oct-16 01:00N 70°60' E 024°41'0 0.0
2017-Oct-16 00:30N 70°60' E 024°41'0 0.0
2017-Oct-16 00:00N 70°60' E 024°41'0 0.0
2017-Oct-15 23:30N 70°60' E 024°41'0 0.0
2017-Oct-15 23:00N 70°60' E 024°41'0 0.0
2017-Oct-15 22:30N 70°60' E 024°41'0 0.0
2017-Oct-15 21:59N 70°60' E 024°41'0 0.0
2017-Oct-15 21:30N 70°60' E 024°41'0 0.0
2017-Oct-15 21:00N 70°60' E 024°41'2 4.5
2017-Oct-15 20:30N 71°01' E 024°46'4 7.3
2017-Oct-15 19:59N 71°04' E 024°52'4 7.7
2017-Oct-15 19:30N 71°08' E 024°55'3 5.8
2017-Oct-15 19:00N 71°11' E 024°53'2 3.0
2017-Oct-15 18:30N 71°11' E 024°57'3 6.6
2017-Oct-15 18:00N 71°12' E 025°07'0 0.6
2017-Oct-15 17:30N 71°12' E 025°06'3 6.8
2017-Oct-15 17:00N 71°11' E 024°56'1 1.0
2017-Oct-15 16:30N 71°11' E 024°55'1 1.5
2017-Oct-15 16:00N 71°12' E 024°56'1 1.1
2017-Oct-15 15:30N 71°11' E 024°57'1 1.6
2017-Oct-15 15:00N 71°11' E 024°54'1 1.0
2017-Oct-15 14:00N 71°12' E 024°57'0 0.4
2017-Oct-15 13:30N 71°12' E 024°57'0 1.0
2017-Oct-15 12:59N 71°11' E 024°57'1 2.3
2017-Oct-15 12:30N 71°11' E 024°53'0 0.3
2017-Oct-15 12:00N 71°11' E 024°53'4 7.2
2017-Oct-15 11:30N 71°07' E 024°54'4 8.0
2017-Oct-15 11:00N 71°04' E 024°51'4 8.3
2017-Oct-15 10:30N 71°00' E 024°44'2 3.8
2017-Oct-15 10:00N 70°60' E 024°38'4 8.2
2017-Oct-15 09:30N 70°58' E 024°27'4 8.5
2017-Oct-15 09:00N 70°55' E 024°17'5 9.3
2017-Oct-15 08:30N 70°52' E 024°06'4 8.3
2017-Oct-15 08:00N 70°50' E 023°56'4 8.3
2017-Oct-15 07:30N 70°47' E 023°46'4 8.6
2017-Oct-15 07:00N 70°44' E 023°36'4 8.9
2017-Oct-15 06:30N 70°41' E 023°27'4 8.7
2017-Oct-15 06:00N 70°38' E 023°18'5 9.1
2017-Oct-15 05:30N 70°35' E 023°09'4 8.6
2017-Oct-15 05:00N 70°31' E 022°60'4 8.1
2017-Oct-15 04:30N 70°30' E 022°48'4 7.3
2017-Oct-15 04:00N 70°29' E 022°37'3 6.6
2017-Oct-15 03:30N 70°28' E 022°28'4 7.3
2017-Oct-15 03:01N 70°27' E 022°17'4 7.7
2017-Oct-15 02:29N 70°26' E 022°06'4 7.7
2017-Oct-15 02:00N 70°25' E 021°55'4 7.7
2017-Oct-15 01:30N 70°24' E 021°44'4 7.3
2017-Oct-15 01:00N 70°22' E 021°36'4 7.6
2017-Oct-15 00:30N 70°19' E 021°28'4 7.6
2017-Oct-15 00:00N 70°17' E 021°19'4 7.8
2017-Oct-14 23:30N 70°14' E 021°10'4 8.2
2017-Oct-14 23:00N 70°11' E 021°05'4 7.7
2017-Oct-14 22:30N 70°07' E 021°01'4 7.8
2017-Oct-14 22:00N 70°04' E 020°54'4 8.5
2017-Oct-14 21:30N 70°02' E 020°42'4 8.3
2017-Oct-14 21:00N 70°01' E 020°31'4 8.1
2017-Oct-14 20:30N 69°59' E 020°20'4 8.1
2017-Oct-14 20:00N 69°58' E 020°09'4 7.9
2017-Oct-14 19:30N 69°55' E 020°00'4 7.8
2017-Oct-14 19:00N 69°53' E 019°51'4 7.9
2017-Oct-14 18:29N 69°51' E 019°42'4 8.2
2017-Oct-14 18:00N 69°49' E 019°31'4 8.1
2017-Oct-14 17:30N 69°47' E 019°20'4 8.4
2017-Oct-14 17:00N 69°46' E 019°09'4 8.1
2017-Oct-14 16:30N 69°42' E 019°03'3 6.5
2017-Oct-14 16:00N 69°39' E 018°58'1 1.6
2017-Oct-14 15:30N 69°40' E 018°60'1 1.6
2017-Oct-14 15:00N 69°39' E 018°58'0 0.0
2017-Oct-14 14:30N 69°39' E 018°58'0 0.0
2017-Oct-14 14:00N 69°39' E 018°58'0 0.0
2017-Oct-14 13:30N 69°39' E 018°58'0 0.0
2017-Oct-14 13:00N 69°39' E 018°58'0 0.0
2017-Oct-14 12:30N 69°39' E 018°58'0 0.0
2017-Oct-14 12:00N 69°39' E 018°58'4 7.1
2017-Oct-14 11:30N 69°36' E 018°53'4 7.8
2017-Oct-14 11:00N 69°33' E 018°45'4 7.6
2017-Oct-14 10:30N 69°32' E 018°35'4 8.3
2017-Oct-14 10:00N 69°31' E 018°24'4 8.1
2017-Oct-14 09:30N 69°29' E 018°13'4 7.5
2017-Oct-14 09:00N 69°26' E 018°07'4 8.6
2017-Oct-14 08:30N 69°22' E 018°06'4 8.4
2017-Oct-14 08:00N 69°18' E 017°58'5 8.9
2017-Oct-14 07:30N 69°14' E 017°58'3 6.9
2017-Oct-14 07:00N 69°11' E 017°58'4 8.2
2017-Oct-14 06:30N 69°09' E 017°47'4 8.3
2017-Oct-14 06:00N 69°07' E 017°37'4 8.2
2017-Oct-14 05:30N 69°06' E 017°26'4 8.2
2017-Oct-14 05:00N 69°02' E 017°20'4 7.8
2017-Oct-14 04:30N 68°59' E 017°14'4 8.3
2017-Oct-14 04:00N 68°59' E 017°03'4 7.9
2017-Oct-14 03:30N 68°59' E 016°52'4 8.0
2017-Oct-14 03:00N 68°59' E 016°41'4 7.9
2017-Oct-14 02:30N 68°58' E 016°30'4 7.9
2017-Oct-14 02:00N 68°60' E 016°19'4 8.1
2017-Oct-14 01:31N 68°59' E 016°08'4 7.9
2017-Oct-14 00:59N 68°59' E 015°57'4 8.3
2017-Oct-14 00:29N 68°59' E 015°46'4 8.0
2017-Oct-14 00:00N 68°57' E 015°36'4 8.4
2017-Oct-13 23:30N 68°53' E 015°32'3 5.6
2017-Oct-13 23:00N 68°54' E 015°25'4 7.7
2017-Oct-13 22:30N 68°57' E 015°23'4 7.3
2017-Oct-13 22:00N 69°01' E 015°20'4 7.8
2017-Oct-13 21:30N 69°03' E 015°10'4 7.5
2017-Oct-13 21:00N 69°02' E 015°00'4 8.2
2017-Oct-13 20:31N 68°57' E 014°59'3 6.6
2017-Oct-13 19:59N 68°55' E 015°04'0 0.2
2017-Oct-13 19:30N 68°55' E 015°04'0 0.0
2017-Oct-13 19:00N 68°55' E 015°04'0 0.0
2017-Oct-13 18:29N 68°55' E 015°04'0 0.0
2017-Oct-13 18:00N 68°55' E 015°04'0 0.0
2017-Oct-13 17:30N 68°55' E 015°04'0 0.0
2017-Oct-13 17:00N 68°55' E 015°04'0 0.0
2017-Oct-13 16:30N 68°55' E 015°04'0 0.0
2017-Oct-13 16:00N 68°55' E 015°04'0 0.0
2017-Oct-13 15:30N 68°55' E 015°04'0 0.0
2017-Oct-13 15:00N 68°55' E 015°04'0 0.0
2017-Oct-13 14:30N 68°55' E 015°04'0 0.0
2017-Oct-13 14:00N 68°55' E 015°04'0 0.0
2017-Oct-13 13:30N 68°55' E 015°04'0 0.0
2017-Oct-13 13:00N 68°55' E 015°04'0 0.0
2017-Oct-13 12:30N 68°55' E 015°04'0 0.0
2017-Oct-13 12:00N 68°55' E 015°04'0 0.0
2017-Oct-13 11:30N 68°55' E 015°04'0 0.0
2017-Oct-13 11:00N 68°55' E 015°04'0 0.0
2017-Oct-13 10:30N 68°55' E 015°04'0 0.0
2017-Oct-13 10:00N 68°55' E 015°04'0 0.0
2017-Oct-13 09:30N 68°55' E 015°04'0 0.0
2017-Oct-13 09:00N 68°55' E 015°04'0 0.0
2017-Oct-13 08:30N 68°55' E 015°04'0 0.0
2017-Oct-13 08:00N 68°55' E 015°04'0 0.0
2017-Oct-12 16:24N 68°55' E 015°04'0 0.0
2017-Oct-12 16:00N 68°55' E 015°04'0 0.0
2017-Oct-12 15:30N 68°55' E 015°04'0 0.0
2017-Oct-12 15:00N 68°55' E 015°04'0 0.0
2017-Oct-12 14:30N 68°55' E 015°04'0 0.0
2017-Oct-12 14:00N 68°55' E 015°04'0 0.0
2017-Oct-12 13:30N 68°55' E 015°04'0 0.0
2017-Oct-12 13:00N 68°55' E 015°04'0 0.0
2017-Oct-12 12:30N 68°55' E 015°04'0 0.0
2017-Oct-12 12:00N 68°55' E 015°04'0 0.0
2017-Oct-12 11:29N 68°55' E 015°04'0 0.0
2017-Oct-12 11:00N 68°55' E 015°04'0 0.0
2017-Oct-12 10:30N 68°55' E 015°04'0 0.0
2017-Oct-12 10:00N 68°55' E 015°04'0 0.0
2017-Oct-12 09:30N 68°55' E 015°04'0 0.0
2017-Oct-12 09:00N 68°55' E 015°04'0 0.0
2017-Oct-12 08:29N 68°55' E 015°04'0 0.0
2017-Oct-12 07:59N 68°55' E 015°04'0 0.0
2017-Oct-12 07:30N 68°55' E 015°04'0 0.0
2017-Oct-12 07:00N 68°55' E 015°04'0 0.0
2017-Oct-12 06:30N 68°55' E 015°04'0 0.0
2017-Oct-12 06:00N 68°55' E 015°04'0 0.0
2017-Oct-12 05:31N 68°55' E 015°04'0 0.0
2017-Oct-12 05:00N 68°55' E 015°04'0 0.0
2017-Oct-12 04:30N 68°55' E 015°04'0 0.0
2017-Oct-12 04:00N 68°55' E 015°04'0 0.0
2017-Oct-12 03:30N 68°55' E 015°04'0 0.0
2017-Oct-12 03:00N 68°55' E 015°04'0 0.0
2017-Oct-12 02:30N 68°55' E 015°04'0 0.0
2017-Oct-12 02:00N 68°55' E 015°04'0 0.0
2017-Oct-12 01:30N 68°55' E 015°04'0 0.0
2017-Oct-12 01:00N 68°55' E 015°04'0 0.0
2017-Oct-12 00:30N 68°55' E 015°04'0 0.0
2017-Oct-12 00:00N 68°55' E 015°04'0 0.0
2017-Oct-11 23:31N 68°55' E 015°04'0 0.0
2017-Oct-11 23:00N 68°55' E 015°04'0 0.0
2017-Oct-11 22:30N 68°55' E 015°04'0 0.0
2017-Oct-11 22:00N 68°55' E 015°04'0 0.0
2017-Oct-11 21:30N 68°55' E 015°04'0 0.0
2017-Oct-11 21:00N 68°55' E 015°04'0 0.0
2017-Oct-11 20:30N 68°55' E 015°04'0 0.0
2017-Oct-11 20:00N 68°55' E 015°04'0 0.0
2017-Oct-11 19:30N 68°55' E 015°04'0 0.0
2017-Oct-11 19:00N 68°55' E 015°04'0 0.0
2017-Oct-11 18:30N 68°55' E 015°04'0 0.0
2017-Oct-11 18:00N 68°55' E 015°04'0 0.0
2017-Oct-11 17:30N 68°55' E 015°04'0 0.0
2017-Oct-11 17:00N 68°55' E 015°04'0 0.0
2017-Oct-11 00:00N 68°55' E 015°04'0 0.0
2017-Oct-10 23:30N 68°55' E 015°04'0 0.0
2017-Oct-10 23:00N 68°55' E 015°04'0 0.0
2017-Oct-10 22:30N 68°55' E 015°04'0 0.0
2017-Oct-10 22:00N 68°55' E 015°04'0 0.0
2017-Oct-10 21:30N 68°55' E 015°04'0 0.0
2017-Oct-10 21:00N 68°55' E 015°04'0 0.0
2017-Oct-10 20:30N 68°55' E 015°04'0 0.0
2017-Oct-10 19:59N 68°55' E 015°04'0 0.0
2017-Oct-10 19:30N 68°55' E 015°04'0 0.0
2017-Oct-10 19:00N 68°55' E 015°04'0 0.0
2017-Oct-10 18:30N 68°55' E 015°04'0 0.0
2017-Oct-10 18:00N 68°55' E 015°04'0 0.0
2017-Oct-10 17:30N 68°55' E 015°04'0 0.0
2017-Oct-10 17:00N 68°55' E 015°04'0 0.0
2017-Oct-10 16:31N 68°55' E 015°04'0 0.0
2017-Oct-10 16:00N 68°55' E 015°04'0 0.0
2017-Oct-10 15:30N 68°55' E 015°04'0 0.0
2017-Oct-10 15:00N 68°55' E 015°04'0 0.0
2017-Oct-10 14:00N 68°55' E 015°04'0 0.0
2017-Oct-10 13:30N 68°55' E 015°04'0 0.0
2017-Oct-10 13:00N 68°55' E 015°04'0 0.0
2017-Oct-10 12:30N 68°55' E 015°04'0 0.0
2017-Oct-10 12:00N 68°55' E 015°04'0 0.0
2017-Oct-10 11:30N 68°55' E 015°04'0 0.0
2017-Oct-10 11:00N 68°55' E 015°04'0 0.0
2017-Oct-10 10:30N 68°55' E 015°04'0 0.0
2017-Oct-10 10:00N 68°55' E 015°04'0 0.0
2017-Oct-10 09:30N 68°55' E 015°04'0 0.0
2017-Oct-10 09:00N 68°55' E 015°04'0 0.0
2017-Oct-10 08:30N 68°55' E 015°04'0 0.0
2017-Oct-10 08:00N 68°55' E 015°04'0 0.0
2017-Oct-10 07:30N 68°55' E 015°04'0 0.0
2017-Oct-10 07:00N 68°55' E 015°04'0 0.0
2017-Oct-10 06:30N 68°55' E 015°04'0 0.0
2017-Oct-10 06:00N 68°55' E 015°04'0 0.0
2017-Oct-10 05:30N 68°55' E 015°04'0 0.0
2017-Oct-10 05:00N 68°55' E 015°04'0 0.0
2017-Oct-10 04:30N 68°55' E 015°04'0 0.0
2017-Oct-10 04:00N 68°55' E 015°04'0 0.0
2017-Oct-10 03:30N 68°55' E 015°04'0 0.0
2017-Oct-10 03:00N 68°55' E 015°04'0 0.0
2017-Oct-10 02:30N 68°55' E 015°04'0 0.0
2017-Oct-10 02:00N 68°55' E 015°04'0 0.0
2017-Oct-10 01:30N 68°55' E 015°04'0 0.0
2017-Oct-10 01:00N 68°55' E 015°04'0 0.0
2017-Oct-10 00:29N 68°55' E 015°04'0 0.0
2017-Oct-10 00:00N 68°55' E 015°04'0 0.0
2017-Oct-09 23:30N 68°55' E 015°04'0 0.0
2017-Oct-09 22:59N 68°55' E 015°04'0 0.0
2017-Oct-09 22:30N 68°55' E 015°04'0 0.0
2017-Oct-09 22:00N 68°55' E 015°04'0 0.0
2017-Oct-09 21:29N 68°55' E 015°04'0 0.0
2017-Oct-09 21:00N 68°55' E 015°04'0 0.0
2017-Oct-09 20:30N 68°55' E 015°04'0 0.0
2017-Oct-09 20:00N 68°55' E 015°04'0 0.0
2017-Oct-09 19:30N 68°55' E 015°04'0 0.0
2017-Oct-09 18:59N 68°55' E 015°04'0 0.0
2017-Oct-09 18:30N 68°55' E 015°04'0 0.0
2017-Oct-09 18:00N 68°55' E 015°04'0 0.0
2017-Oct-09 17:30N 68°55' E 015°04'0 0.0
2017-Oct-09 17:00N 68°55' E 015°04'0 0.0
2017-Oct-09 16:30N 68°55' E 015°04'0 0.0
2017-Oct-09 16:00N 68°55' E 015°04'0 0.0
2017-Oct-09 15:30N 68°55' E 015°04'0 0.0
2017-Oct-09 15:01N 68°55' E 015°04'0 0.0
2017-Oct-09 14:30N 68°55' E 015°04'0 0.0
2017-Oct-09 14:00N 68°55' E 015°04'0 0.0
2017-Oct-09 13:30N 68°55' E 015°04'0 0.0
2017-Oct-09 13:00N 68°55' E 015°04'0 0.0
2017-Oct-09 12:29N 68°55' E 015°04'0 0.0
2017-Oct-09 12:00N 68°55' E 015°04'0 0.0
2017-Oct-09 11:30N 68°55' E 015°04'0 0.0
2017-Oct-09 11:00N 68°55' E 015°04'0 0.0
2017-Oct-09 10:30N 68°55' E 015°04'0 0.0
2017-Oct-09 09:59N 68°55' E 015°04'0 0.0
2017-Oct-09 09:30N 68°55' E 015°04'0 0.0
2017-Oct-09 09:00N 68°55' E 015°04'0 0.0
2017-Oct-09 08:30N 68°55' E 015°04'0 0.0
2017-Oct-09 08:00N 68°55' E 015°04'0 0.0
2017-Oct-09 07:30N 68°55' E 015°04'0 0.0
2017-Oct-09 07:00N 68°55' E 015°04'0 0.0
2017-Oct-09 06:30N 68°55' E 015°04'0 0.0
2017-Oct-09 06:00N 68°55' E 015°04'0 0.0
2017-Oct-09 05:30N 68°55' E 015°04'0 0.0
2017-Oct-09 05:00N 68°55' E 015°04'0 0.0
2017-Oct-09 04:30N 68°55' E 015°04'0 0.0
2017-Oct-09 04:00N 68°55' E 015°04'0 0.0
2017-Oct-09 03:30N 68°55' E 015°04'0 0.0
2017-Oct-09 03:00N 68°55' E 015°04'0 0.0
2017-Oct-09 02:30N 68°55' E 015°04'0 0.0
2017-Oct-09 02:00N 68°55' E 015°04'0 0.0
2017-Oct-09 01:30N 68°55' E 015°04'0 0.0
2017-Oct-09 01:00N 68°55' E 015°04'0 0.0
2017-Oct-09 00:30N 68°55' E 015°04'0 0.0
2017-Oct-09 00:00N 68°55' E 015°04'0 0.0
2017-Oct-08 23:30N 68°55' E 015°04'0 0.0
2017-Oct-08 23:00N 68°55' E 015°04'0 0.0
2017-Oct-08 22:30N 68°55' E 015°04'0 0.0
2017-Oct-08 22:00N 68°55' E 015°04'0 0.0
2017-Oct-08 21:30N 68°55' E 015°04'0 0.0
2017-Oct-08 21:00N 68°55' E 015°04'0 0.0
2017-Oct-08 20:30N 68°55' E 015°04'0 0.0
2017-Oct-08 20:01N 68°55' E 015°04'0 0.0
2017-Oct-08 19:30N 68°55' E 015°04'0 0.0
2017-Oct-08 19:00N 68°55' E 015°04'0 0.0
2017-Oct-08 18:30N 68°55' E 015°04'0 0.0
2017-Oct-08 18:00N 68°55' E 015°04'0 0.0
2017-Oct-08 17:29N 68°55' E 015°04'0 0.0
2017-Oct-08 17:00N 68°55' E 015°04'0 0.0
2017-Oct-08 16:30N 68°55' E 015°04'0 0.0
2017-Oct-08 16:00N 68°55' E 015°04'0 0.0
2017-Oct-08 15:30N 68°55' E 015°04'0 0.0
2017-Oct-08 14:59N 68°55' E 015°04'0 0.0
2017-Oct-08 14:30N 68°55' E 015°04'0 0.0
2017-Oct-08 14:00N 68°55' E 015°04'0 0.0
2017-Oct-08 13:29N 68°55' E 015°04'0 0.0
2017-Oct-08 12:59N 68°55' E 015°04'0 0.0
2017-Oct-08 12:30N 68°55' E 015°04'0 0.0
2017-Oct-08 12:00N 68°55' E 015°04'0 0.0
2017-Oct-08 11:30N 68°55' E 015°04'0 0.0
2017-Oct-08 11:00N 68°55' E 015°04'0 0.0
2017-Oct-08 10:30N 68°55' E 015°04'0 0.0
2017-Oct-08 10:00N 68°55' E 015°04'0 0.2
2017-Oct-08 09:30N 68°55' E 015°04'0 0.0
2017-Oct-08 09:01N 68°55' E 015°04'0 0.0
2017-Oct-08 08:29N 68°55' E 015°04'3 6.8
2017-Oct-08 08:00N 68°57' E 014°59'4 8.3
2017-Oct-08 07:30N 69°02' E 015°01'4 7.9
2017-Oct-08 07:00N 69°05' E 015°06'4 7.2
2017-Oct-08 06:29N 69°08' E 015°11'3 6.9
2017-Oct-08 06:00N 69°11' E 015°16'3 6.8
2017-Oct-08 05:30N 69°14' E 015°21'3 6.8
2017-Oct-08 05:00N 69°17' E 015°25'3 6.7
2017-Oct-08 04:30N 69°20' E 015°30'3 6.9
2017-Oct-08 04:00N 69°23' E 015°34'3 6.7
2017-Oct-08 03:30N 69°26' E 015°39'3 6.4
2017-Oct-08 03:00N 69°29' E 015°43'4 7.1
2017-Oct-08 02:30N 69°32' E 015°47'  

Dump ship's entire track history